createdAt,value
2022-10-02T00:05:09.157Z,14.72
2022-10-02T00:10:40.618Z,14.73
2022-10-02T00:16:18.767Z,14.69
2022-10-02T00:21:50.456Z,14.7
2022-10-02T00:27:22.221Z,14.62
2022-10-02T00:32:53.905Z,14.69
2022-10-02T00:38:25.637Z,14.78
2022-10-02T00:43:57.355Z,14.62
2022-10-02T00:49:29.273Z,14.56
2022-10-02T00:55:00.841Z,14.6
2022-10-02T01:00:32.520Z,14.54
2022-10-02T01:06:11.588Z,14.53
2022-10-02T01:11:35.952Z,14.48
2022-10-02T01:17:12.072Z,14.63
2022-10-02T01:22:50.733Z,14.5
2022-10-02T01:28:22.582Z,14.48
2022-10-02T01:33:54.214Z,14.44
2022-10-02T01:39:25.930Z,14.48
2022-10-02T01:44:57.621Z,14.6
2022-10-02T01:50:29.356Z,14.62
2022-10-02T01:56:01.125Z,14.68
2022-10-02T02:01:32.879Z,14.7
2022-10-02T02:07:04.514Z,14.88
2022-10-02T02:12:36.255Z,14.82
2022-10-02T02:18:12.371Z,14.97
2022-10-02T02:23:44.076Z,14.92
2022-10-02T02:29:15.794Z,15.01
2022-10-02T02:34:47.507Z,15.03
2022-10-02T02:40:19.258Z,14.97
2022-10-02T02:45:51.008Z,15.06
2022-10-02T02:51:22.824Z,14.9
2022-10-02T02:56:54.454Z,15.26
2022-10-02T03:02:26.361Z,15.2
2022-10-02T03:07:57.895Z,15.04
2022-10-02T03:13:29.579Z,15.17
2022-10-02T03:19:05.715Z,14.99
2022-10-02T03:24:37.450Z,15.12
2022-10-02T03:30:09.198Z,15.17
2022-10-02T03:35:40.937Z,14.98
2022-10-02T03:41:12.647Z,15.04
2022-10-02T03:46:44.381Z,15.02
2022-10-02T03:52:16.141Z,14.99
2022-10-02T03:57:47.780Z,14.99
2022-10-02T04:03:19.575Z,15.08
2022-10-02T04:08:51.290Z,15.13
2022-10-02T04:14:22.933Z,14.94
2022-10-02T04:19:59.086Z,14.98
2022-10-02T04:25:30.830Z,15.03
2022-10-02T04:31:02.674Z,15.23
2022-10-02T04:36:34.590Z,15.17
2022-10-02T04:42:05.998Z,15.09
2022-10-02T04:47:37.715Z,15.17
2022-10-02T04:53:09.483Z,15.3
2022-10-02T04:58:41.222Z,15.45
2022-10-02T05:04:12.925Z,15.47
2022-10-02T05:09:44.658Z,15.53
2022-10-02T05:15:16.314Z,15.57
2022-10-02T05:20:52.645Z,15.54
2022-10-02T05:26:24.148Z,15.52
2022-10-02T05:31:55.929Z,15.54
2022-10-02T05:37:27.626Z,15.48
2022-10-02T05:42:59.341Z,15.51
2022-10-02T05:48:31.065Z,15.49
2022-10-02T05:54:02.752Z,15.5
2022-10-02T05:59:34.542Z,15.5
2022-10-02T06:05:06.258Z,15.41
2022-10-02T06:10:37.950Z,15.47
2022-10-02T06:16:09.728Z,15.52
2022-10-02T06:21:45.866Z,15.52
2022-10-02T06:27:17.584Z,15.53
2022-10-02T06:32:49.267Z,15.63
2022-10-02T06:38:21.038Z,15.59
2022-10-02T06:43:52.726Z,15.61
2022-10-02T06:49:24.490Z,15.59
2022-10-02T06:54:56.206Z,15.66
2022-10-02T07:00:27.906Z,15.61
2022-10-02T07:05:59.641Z,15.61
2022-10-02T07:11:32.125Z,15.62
2022-10-02T07:17:03.845Z,15.51
2022-10-02T07:22:45.303Z,15.61
2022-10-02T07:28:13.788Z,15.49
2022-10-02T07:33:45.513Z,15.52
2022-10-02T07:39:17.462Z,15.59
2022-10-02T07:44:48.891Z,15.6
2022-10-02T07:50:20.640Z,15.62
2022-10-02T07:55:52.409Z,15.5
2022-10-02T08:01:24.130Z,15.37
2022-10-02T08:06:55.838Z,14.89
2022-10-02T08:12:27.636Z,14.78
2022-10-02T08:18:10.967Z,15.09
2022-10-02T08:23:35.441Z,15.16
2022-10-02T08:29:07.129Z,15.15
2022-10-02T08:34:38.881Z,15.3
2022-10-02T08:40:10.629Z,15.53
2022-10-02T08:45:42.320Z,15.56
2022-10-02T08:51:14.034Z,15.43
2022-10-02T08:56:45.739Z,15.61
2022-10-02T09:02:17.563Z,15.85
2022-10-02T09:07:49.193Z,15.95
2022-10-02T09:13:20.905Z,15.51
2022-10-02T09:18:52.641Z,15.99
2022-10-02T09:24:30.848Z,16.33
2022-10-02T09:30:02.514Z,16.02
2022-10-02T09:35:34.248Z,16.03
2022-10-02T09:41:06.859Z,15.72
2022-10-02T09:46:37.927Z,15.7
2022-10-02T09:52:09.406Z,15.59
2022-10-02T09:57:41.118Z,15.27
2022-10-02T10:03:12.858Z,15.42
2022-10-02T10:08:44.581Z,15.36
2022-10-02T10:14:16.339Z,15.09
2022-10-02T10:19:48.042Z,15.36
2022-10-02T10:25:26.242Z,15.3
2022-10-02T10:30:57.936Z,15.43
2022-10-02T10:36:29.621Z,15.38
2022-10-02T10:42:01.328Z,15.09
2022-10-02T10:47:33.049Z,15.47
2022-10-02T10:53:04.761Z,15.27
2022-10-02T10:58:36.557Z,15.37
2022-10-02T11:04:08.232Z,15.07
2022-10-02T11:09:39.981Z,15.06
2022-10-02T11:15:11.653Z,15.36
2022-10-02T11:20:43.396Z,15.02
2022-10-02T11:26:19.525Z,15.01
2022-10-02T11:31:51.300Z,14.93
2022-10-02T11:37:23.075Z,15.08
2022-10-02T11:42:54.737Z,14.99
2022-10-02T11:48:26.433Z,15.08
2022-10-02T11:53:58.236Z,15.26
2022-10-02T11:59:29.922Z,15.04
2022-10-02T12:05:01.589Z,15.09
2022-10-02T12:10:33.350Z,15.1
2022-10-02T12:16:05.175Z,15.02
2022-10-02T12:21:37.374Z,15.02
2022-10-02T12:27:12.972Z,15.27
2022-10-02T12:32:44.758Z,15.45
2022-10-02T12:38:16.443Z,15.57
2022-10-02T12:43:48.145Z,15.69
2022-10-02T12:49:19.908Z,15.66
2022-10-02T12:54:51.598Z,15.39
2022-10-02T13:00:23.327Z,15.28
2022-10-02T13:05:55.042Z,15.14
2022-10-02T13:11:26.781Z,15.06
2022-10-02T13:16:58.478Z,14.89
2022-10-02T13:22:30.201Z,14.97
2022-10-02T13:28:08.427Z,14.92
2022-10-02T13:33:40.062Z,14.99
2022-10-02T13:39:11.873Z,14.74
2022-10-02T13:44:43.489Z,14.86
2022-10-02T13:50:17.583Z,14.96
2022-10-02T13:55:46.988Z,15.02
2022-10-02T14:01:18.753Z,14.78
2022-10-02T14:06:50.437Z,14.65
2022-10-02T14:12:22.158Z,14.49
2022-10-02T14:17:53.838Z,14.6
2022-10-02T14:23:25.537Z,14.6
2022-10-02T14:29:07.802Z,14.64
2022-10-02T14:34:35.374Z,14.53
2022-10-02T14:40:07.147Z,14.53
2022-10-02T14:45:38.897Z,14.91
2022-10-02T14:51:10.583Z,14.8
2022-10-02T14:56:42.273Z,15.12
2022-10-02T15:02:14.059Z,15.13
2022-10-02T15:07:45.749Z,15.5
2022-10-02T15:13:17.457Z,15.08
2022-10-02T15:18:49.197Z,15.18
2022-10-02T15:24:20.966Z,14.86
2022-10-02T15:29:57.066Z,15.18
2022-10-02T15:35:28.777Z,15.49
2022-10-02T15:41:00.497Z,15.3
2022-10-02T15:46:32.230Z,15.45
2022-10-02T15:52:04.014Z,15.32
2022-10-02T15:57:35.878Z,15.48
2022-10-02T16:03:07.530Z,15.55
2022-10-02T16:08:39.160Z,15.63
2022-10-02T16:14:10.929Z,15.41
2022-10-02T16:19:42.578Z,15.46
2022-10-02T16:25:14.721Z,15.49
2022-10-02T16:30:50.440Z,15.52
2022-10-02T16:36:22.226Z,15.57
2022-10-02T16:41:57.821Z,15.51
2022-10-02T16:47:25.609Z,15.43
2022-10-02T16:52:57.262Z,15.18
2022-10-02T16:58:29.421Z,14.8
2022-10-02T17:04:00.757Z,14.86
2022-10-02T17:09:32.586Z,15.11
2022-10-02T17:15:04.326Z,15.17
2022-10-02T17:20:35.902Z,15.2
2022-10-02T17:26:07.691Z,14.63
2022-10-02T17:31:43.907Z,14.6
2022-10-02T17:37:15.521Z,14.65
2022-10-02T17:42:47.293Z,14.81
2022-10-02T17:48:18.948Z,15.08
2022-10-02T17:53:50.662Z,15.05
2022-10-02T17:59:22.438Z,15.1
2022-10-02T18:04:54.118Z,15.17
2022-10-02T18:10:25.903Z,15.21
2022-10-02T18:15:57.589Z,15.06
2022-10-02T18:16:45.372Z,15.0
2022-10-02T18:22:17.094Z,15.17
2022-10-02T18:27:48.900Z,15.06
2022-10-02T18:33:20.581Z,15.12
2022-10-02T18:38:52.276Z,15.16
2022-10-02T18:44:24.062Z,15.2
2022-10-02T18:49:55.765Z,14.99
2022-10-02T18:55:27.460Z,15.04
2022-10-02T19:00:59.246Z,14.96
2022-10-02T19:06:30.893Z,14.82
2022-10-02T19:12:02.603Z,15.06
2022-10-02T19:17:38.725Z,15.06
2022-10-02T19:23:10.502Z,15.11
2022-10-02T19:28:42.181Z,15.03
2022-10-02T19:34:13.942Z,15.11
2022-10-02T19:39:45.658Z,15.15
2022-10-02T19:45:19.632Z,15.18
2022-10-02T19:50:49.078Z,15.15
2022-10-02T19:56:20.791Z,15.15
2022-10-02T20:01:52.659Z,15.11
2022-10-02T20:07:24.310Z,15.08
2022-10-02T20:12:55.973Z,15.03
2022-10-02T20:18:34.117Z,14.95
2022-10-02T20:24:05.793Z,15.01
2022-10-02T20:29:37.543Z,14.98
2022-10-02T20:35:09.300Z,14.73
2022-10-02T20:40:40.993Z,14.74
2022-10-02T20:46:12.985Z,14.6
2022-10-02T20:51:46.459Z,14.5
2022-10-02T20:57:16.618Z,14.44
2022-10-02T21:02:47.934Z,14.36
2022-10-02T21:08:19.627Z,14.28
2022-10-02T21:13:51.358Z,14.29
2022-10-02T21:19:27.466Z,14.19
2022-10-02T21:24:59.211Z,14.14
2022-10-02T21:30:30.919Z,14.12
2022-10-02T21:36:02.654Z,14.15
2022-10-02T21:41:34.653Z,14.22
2022-10-02T21:47:06.102Z,14.28
2022-10-02T21:52:37.820Z,14.25
2022-10-02T21:58:09.594Z,14.3
2022-10-02T22:03:41.294Z,14.34
2022-10-02T22:09:12.973Z,14.36
2022-10-02T22:14:44.716Z,14.39
2022-10-02T22:20:24.895Z,14.42
2022-10-02T22:25:56.586Z,14.42
2022-10-02T22:31:28.288Z,14.38
2022-10-02T22:37:00.027Z,14.4
2022-10-02T22:42:31.982Z,14.41
2022-10-02T22:48:03.459Z,14.41
2022-10-02T22:53:35.353Z,14.39
2022-10-02T22:59:06.945Z,14.33
2022-10-02T23:04:38.623Z,14.29
2022-10-02T23:10:10.381Z,14.3
2022-10-02T23:15:42.093Z,14.2
2022-10-02T23:21:18.285Z,14.1
2022-10-02T23:26:49.921Z,13.84
2022-10-02T23:32:21.615Z,13.85
2022-10-02T23:37:53.365Z,13.41
2022-10-02T23:43:25.158Z,13.78
2022-10-02T23:48:56.820Z,13.99
2022-10-02T23:54:28.553Z,14.0
